createdAt,value
2022-09-13T00:02:20.254Z,8.10
2022-09-13T00:04:47.157Z,7.63
2022-09-13T00:07:14.104Z,7.70
2022-09-13T00:09:41.097Z,7.50
2022-09-13T00:12:08.107Z,9.00
2022-09-13T00:14:34.992Z,8.43
2022-09-13T00:17:02.092Z,8.73
2022-09-13T00:19:29.047Z,7.30
2022-09-13T00:21:55.937Z,9.90
2022-09-13T00:24:22.917Z,10.23
2022-09-13T00:26:50.137Z,8.27
2022-09-13T00:29:17.165Z,8.70
2022-09-13T00:31:44.197Z,9.93
2022-09-13T00:34:11.143Z,7.63
2022-09-13T00:36:38.052Z,7.93
2022-09-13T00:39:05.033Z,7.80
2022-09-13T00:41:32.063Z,7.77
2022-09-13T00:44:02.097Z,7.57
2022-09-13T00:46:43.801Z,8.40
2022-09-13T00:49:13.452Z,7.40
2022-09-13T00:51:43.862Z,8.17
2022-09-13T00:54:13.607Z,8.17
2022-09-13T00:56:47.583Z,7.40
2022-09-13T00:59:32.382Z,7.80
2022-09-13T01:02:02.344Z,9.07
2022-09-13T01:04:33.552Z,9.37
2022-09-13T01:07:07.323Z,7.70
2022-09-13T01:09:40.242Z,8.87
2022-09-13T01:12:36.562Z,9.07
2022-09-13T01:15:06.814Z,9.37
2022-09-13T01:17:34.433Z,8.20
2022-09-13T01:20:03.743Z,9.00
2022-09-13T01:22:52.456Z,8.13
2022-09-13T01:26:02.814Z,7.93
2022-09-13T01:29:22.658Z,8.00
2022-09-13T01:32:20.498Z,11.20
2022-09-13T01:35:02.522Z,7.67
2022-09-13T01:37:56.267Z,8.53
2022-09-13T01:40:32.789Z,7.60
2022-09-13T01:43:33.547Z,8.30
2022-09-13T01:46:26.097Z,8.13
2022-09-13T01:49:17.845Z,8.93
2022-09-13T01:51:50.337Z,14.17
2022-09-13T01:54:26.157Z,12.43
2022-09-13T01:57:13.449Z,10.37
2022-09-13T02:00:00.088Z,22.10
2022-09-13T02:03:04.717Z,27.50
2022-09-13T02:06:09.137Z,11.87
2022-09-13T02:09:02.325Z,13.10
2022-09-13T02:11:29.938Z,19.23
2022-09-13T02:14:11.603Z,16.70
2022-09-13T02:16:48.109Z,12.70
2022-09-13T02:19:31.625Z,18.87
2022-09-13T02:22:01.408Z,13.00
2022-09-13T02:24:43.438Z,14.20
2022-09-13T02:27:20.561Z,9.60
2022-09-13T02:29:56.038Z,8.93
2022-09-13T02:32:33.713Z,10.70
2022-09-13T02:35:06.157Z,11.73
2022-09-13T02:37:36.726Z,13.57
2022-09-13T02:40:11.453Z,21.60
2022-09-13T02:42:51.972Z,21.83
2022-09-13T02:45:30.229Z,17.43
2022-09-13T02:48:05.147Z,13.87
2022-09-13T02:51:07.537Z,14.47
2022-09-13T02:53:51.492Z,11.67
2022-09-13T02:56:46.156Z,9.07
2022-09-13T02:59:22.413Z,8.13
2022-09-13T03:02:22.325Z,8.37
2022-09-13T03:04:51.852Z,10.70
2022-09-13T03:07:18.902Z,9.93
2022-09-13T03:09:55.023Z,9.73
2022-09-13T03:12:30.423Z,9.37
2022-09-13T03:15:25.889Z,11.10
2022-09-13T03:18:32.652Z,10.87
2022-09-13T03:21:20.252Z,11.20
2022-09-13T03:24:47.597Z,14.77
2022-09-13T03:27:31.699Z,14.83
2022-09-13T03:30:09.326Z,11.73
2022-09-13T03:32:44.834Z,10.70
2022-09-13T03:35:27.067Z,10.23
2022-09-13T03:38:13.157Z,9.63
2022-09-13T03:40:53.835Z,8.77
2022-09-13T03:43:23.399Z,8.57
2022-09-13T03:45:57.374Z,8.00
2022-09-13T03:48:25.293Z,8.27
2022-09-13T03:50:53.097Z,8.50
2022-09-13T03:53:28.013Z,7.50
2022-09-13T03:55:54.963Z,8.13
2022-09-13T03:58:23.152Z,9.13
2022-09-13T04:00:50.268Z,6.93
2022-09-13T04:03:17.611Z,7.13
2022-09-13T04:05:44.604Z,8.37
2022-09-13T04:08:11.547Z,6.93
2022-09-13T04:10:40.852Z,6.90
2022-09-13T04:13:07.803Z,9.37
2022-09-13T04:15:34.697Z,7.53
2022-09-13T04:18:01.878Z,10.00
2022-09-13T04:20:29.404Z,9.40
2022-09-13T04:22:57.732Z,17.50
2022-09-13T04:25:24.814Z,25.93
2022-09-13T04:28:00.075Z,7.83
2022-09-13T04:30:28.807Z,16.03
2022-09-13T04:32:57.968Z,19.00
2022-09-13T04:35:25.272Z,6.50
2022-09-13T04:37:57.216Z,6.90
2022-09-13T04:40:25.632Z,13.20
2022-09-13T04:42:52.655Z,8.30
2022-09-13T04:45:19.578Z,7.10
2022-09-13T04:47:54.320Z,13.13
2022-09-13T04:50:23.547Z,20.43
2022-09-13T04:52:52.232Z,13.37
2022-09-13T04:55:19.133Z,13.50
2022-09-13T04:57:46.147Z,17.27
2022-09-13T05:00:13.659Z,16.30
2022-09-13T05:02:40.713Z,20.60
2022-09-13T05:05:08.977Z,12.07
2022-09-13T05:07:35.958Z,13.63
2022-09-13T05:10:02.859Z,11.93
2022-09-13T05:12:29.802Z,15.60
2022-09-13T05:14:56.792Z,19.40
2022-09-13T05:17:23.832Z,16.70
2022-09-13T05:19:50.738Z,11.60
2022-09-13T05:22:17.697Z,13.83
2022-09-13T05:24:44.662Z,10.37
2022-09-13T05:27:11.573Z,11.83
2022-09-13T05:29:38.472Z,11.23
2022-09-13T05:32:05.437Z,14.47
2022-09-13T05:34:32.349Z,19.97
2022-09-13T05:36:59.358Z,14.03
2022-09-13T05:39:34.125Z,12.27
2022-09-13T05:42:10.872Z,11.53
2022-09-13T05:44:37.943Z,10.90
2022-09-13T05:47:05.822Z,18.23
2022-09-13T05:49:32.773Z,13.90
2022-09-13T05:51:59.687Z,12.50
2022-09-13T05:54:26.562Z,12.73
2022-09-13T05:56:57.616Z,13.00
2022-09-13T05:59:24.693Z,11.50
2022-09-13T06:01:51.743Z,8.77
2022-09-13T06:04:18.893Z,10.17
2022-09-13T06:06:45.874Z,12.43
2022-09-13T06:09:13.318Z,10.07
2022-09-13T06:11:40.643Z,9.87
2022-09-13T06:14:08.278Z,17.70
2022-09-13T06:16:36.974Z,15.33
2022-09-13T06:19:04.147Z,12.63
2022-09-13T06:21:32.863Z,12.33
2022-09-13T06:23:59.861Z,9.93
2022-09-13T06:26:28.820Z,10.90
2022-09-13T06:28:58.422Z,10.77
2022-09-13T06:31:28.833Z,14.43
2022-09-13T06:34:00.343Z,12.60
2022-09-13T06:36:28.337Z,11.03
2022-09-13T06:38:55.762Z,11.67
2022-09-13T06:41:25.083Z,11.00
2022-09-13T06:43:58.807Z,14.50
2022-09-13T06:46:28.894Z,14.67
2022-09-13T06:48:59.378Z,13.07
2022-09-13T06:51:27.165Z,18.40
2022-09-13T06:53:56.981Z,15.97
2022-09-13T06:56:33.653Z,35.07
2022-09-13T06:59:05.377Z,17.50
2022-09-13T07:01:35.903Z,19.57
2022-09-13T07:04:05.615Z,19.20
2022-09-13T07:06:36.252Z,21.40
2022-09-13T07:09:06.995Z,24.30
2022-09-13T07:11:38.249Z,36.73
2022-09-13T07:14:06.997Z,23.17
2022-09-13T07:16:37.778Z,26.83
2022-09-13T07:19:18.359Z,37.50
2022-09-13T07:21:45.447Z,32.27
2022-09-13T07:24:13.018Z,24.10
2022-09-13T07:26:40.017Z,25.73
2022-09-13T07:29:12.218Z,19.33
2022-09-13T07:31:42.097Z,18.03
2022-09-13T07:34:15.937Z,25.50
2022-09-13T07:36:43.138Z,19.43
2022-09-13T07:39:14.883Z,16.20
2022-09-13T07:41:44.404Z,19.47
2022-09-13T07:44:12.627Z,18.87
2022-09-13T07:46:42.092Z,19.47
2022-09-13T07:49:11.498Z,23.17
2022-09-13T07:51:41.475Z,21.23
2022-09-13T07:54:14.308Z,19.53
2022-09-13T07:56:42.457Z,19.00
2022-09-13T07:59:17.793Z,19.70
2022-09-13T08:01:48.990Z,21.10
2022-09-13T08:04:21.192Z,26.07
2022-09-13T08:06:48.500Z,23.37
2022-09-13T08:09:16.789Z,22.90
2022-09-13T08:11:47.283Z,21.13
2022-09-13T08:14:17.881Z,20.30
2022-09-13T08:16:45.039Z,20.47
2022-09-13T08:19:18.723Z,19.87
2022-09-13T08:21:46.150Z,21.30
2022-09-13T08:24:21.474Z,18.20
2022-09-13T08:26:49.303Z,18.30
2022-09-13T08:29:17.128Z,18.37
2022-09-13T08:31:44.995Z,18.57
2022-09-13T08:34:15.435Z,19.47
2022-09-13T08:36:43.731Z,18.83
2022-09-13T08:39:13.885Z,18.60
2022-09-13T08:41:42.459Z,22.60
2022-09-13T08:44:25.967Z,18.40
2022-09-13T08:47:28.024Z,17.43
2022-09-13T08:50:07.413Z,18.53
2022-09-13T08:52:41.652Z,16.23
2022-09-13T08:55:24.507Z,17.70
2022-09-13T08:58:26.333Z,18.37
2022-09-13T09:01:44.615Z,18.27
2022-09-13T09:04:27.882Z,16.30
2022-09-13T09:07:24.587Z,15.53
2022-09-13T09:09:58.614Z,15.93
2022-09-13T09:12:43.049Z,17.47
2022-09-13T09:15:35.472Z,17.53
2022-09-13T09:18:33.201Z,14.03
2022-09-13T09:21:04.275Z,17.53
2022-09-13T09:23:34.347Z,18.03
2022-09-13T09:26:18.876Z,15.50
2022-09-13T09:29:27.382Z,15.80
2022-09-13T09:32:18.922Z,14.93
2022-09-13T09:35:10.523Z,14.20
2022-09-13T09:37:39.702Z,13.30
2022-09-13T09:40:12.959Z,13.03
2022-09-13T09:42:47.664Z,12.73
2022-09-13T09:45:29.341Z,11.93
2022-09-13T09:48:01.864Z,11.60
2022-09-13T09:50:43.734Z,11.30
2022-09-13T09:53:25.629Z,11.03
2022-09-13T09:56:31.251Z,10.30
2022-09-13T09:58:58.284Z,10.67
2022-09-13T10:01:51.307Z,11.23
2022-09-13T10:04:23.055Z,9.07
2022-09-13T10:06:51.845Z,10.00
2022-09-13T10:09:21.919Z,8.57
2022-09-13T10:11:58.384Z,9.10
2022-09-13T10:14:46.195Z,9.87
2022-09-13T10:17:18.577Z,9.53
2022-09-13T10:20:00.062Z,9.90
2022-09-13T10:22:29.705Z,10.23
2022-09-13T10:25:23.314Z,9.70
2022-09-13T10:27:58.914Z,9.07
2022-09-13T10:30:56.057Z,8.43
2022-09-13T10:33:35.434Z,10.60
2022-09-13T10:36:25.097Z,9.70
2022-09-13T10:39:13.520Z,11.43
2022-09-13T10:41:45.968Z,9.03
2022-09-13T10:44:44.730Z,9.27
2022-09-13T10:47:23.364Z,10.20
2022-09-13T10:49:59.635Z,9.80
2022-09-13T10:53:00.349Z,9.50
2022-09-13T10:55:32.040Z,11.43
2022-09-13T10:58:01.839Z,9.90
2022-09-13T11:00:57.939Z,10.60
2022-09-13T11:03:49.951Z,11.00
2022-09-13T11:06:42.496Z,10.90
2022-09-13T11:09:58.384Z,9.23
2022-09-13T11:12:58.799Z,9.20
2022-09-13T11:15:41.272Z,9.70
2022-09-13T11:19:01.565Z,9.77
2022-09-13T11:24:59.605Z,8.43
2022-09-13T11:27:50.851Z,8.50
2022-09-13T11:30:29.153Z,9.87
2022-09-13T11:33:26.230Z,7.63
2022-09-13T11:36:21.029Z,7.57
2022-09-13T11:42:31.129Z,6.87
2022-09-13T11:45:06.595Z,6.80
2022-09-13T11:47:45.795Z,7.10
2022-09-13T11:50:39.931Z,6.90
2022-09-13T11:53:43.713Z,7.43
2022-09-13T11:56:34.820Z,6.13
2022-09-13T11:59:19.044Z,8.20
2022-09-13T12:01:52.563Z,7.00
2022-09-13T12:04:33.913Z,5.87
2022-09-13T12:07:10.815Z,7.93
2022-09-13T12:09:53.318Z,5.80
2022-09-13T12:12:22.154Z,5.53
2022-09-13T12:15:01.134Z,9.43
2022-09-13T12:18:05.763Z,7.50
2022-09-13T12:20:48.987Z,6.40
2022-09-13T12:23:32.035Z,7.43
2022-09-13T12:26:14.274Z,6.80
2022-09-13T12:28:49.612Z,6.07
2022-09-13T12:31:26.374Z,6.83
2022-09-13T12:33:56.018Z,6.80
2022-09-13T12:36:49.498Z,6.30
2022-09-13T12:39:28.504Z,7.30
2022-09-13T12:42:19.466Z,6.70
2022-09-13T12:44:46.304Z,5.67
2022-09-13T12:47:55.050Z,5.70
2022-09-13T12:50:48.265Z,6.70
2022-09-13T12:53:42.454Z,5.30
2022-09-13T12:56:40.025Z,5.33
2022-09-13T12:59:28.404Z,5.50
2022-09-13T13:01:55.975Z,4.77
2022-09-13T13:04:32.819Z,5.20
2022-09-13T13:07:04.305Z,5.60
2022-09-13T13:09:48.455Z,6.00
2022-09-13T13:12:34.297Z,5.67
2022-09-13T13:15:31.069Z,6.70
2022-09-13T13:17:58.104Z,5.50
2022-09-13T13:20:52.596Z,5.60
2022-09-13T13:23:35.746Z,5.00
2022-09-13T13:26:20.894Z,8.20
2022-09-13T13:28:47.997Z,5.07
2022-09-13T13:31:30.138Z,5.83
2022-09-13T13:34:14.412Z,4.83
2022-09-13T13:36:41.312Z,4.97
2022-09-13T13:39:23.304Z,4.97
2022-09-13T13:42:00.402Z,5.03
2022-09-13T13:44:27.587Z,5.73
2022-09-13T13:47:07.255Z,5.07
2022-09-13T13:49:38.856Z,4.63
2022-09-13T13:52:19.289Z,4.73
2022-09-13T13:54:46.085Z,5.37
2022-09-13T13:57:27.211Z,5.80
2022-09-13T14:00:11.659Z,6.67
2022-09-13T14:02:58.409Z,5.27
2022-09-13T14:06:16.627Z,5.53
2022-09-13T14:09:04.885Z,5.17
2022-09-13T14:12:08.013Z,5.33
2022-09-13T14:15:01.469Z,5.10
2022-09-13T14:18:08.257Z,4.83
2022-09-13T14:20:35.135Z,5.23
2022-09-13T14:23:20.799Z,5.60
2022-09-13T14:26:00.255Z,5.03
2022-09-13T14:28:28.048Z,7.60
2022-09-13T14:30:59.689Z,5.83
2022-09-13T14:33:35.158Z,5.43
2022-09-13T14:36:08.604Z,5.50
2022-09-13T14:38:36.711Z,5.10
2022-09-13T14:41:20.099Z,5.80
2022-09-13T14:43:50.019Z,5.90
2022-09-13T14:46:34.416Z,6.80
2022-09-13T14:49:07.371Z,5.57
2022-09-13T14:51:52.124Z,5.80
2022-09-13T14:54:31.754Z,5.37
2022-09-13T14:57:02.256Z,5.00
2022-09-13T14:59:42.304Z,5.37
2022-09-13T15:02:24.190Z,6.03
2022-09-13T15:04:56.505Z,5.40
2022-09-13T15:07:23.839Z,5.00
2022-09-13T15:09:56.984Z,4.67
2022-09-13T15:12:28.431Z,4.90
2022-09-13T15:15:22.485Z,5.93
2022-09-13T15:18:26.080Z,5.77
2022-09-13T15:21:13.871Z,5.23
2022-09-13T15:23:50.847Z,4.87
2022-09-13T15:26:22.855Z,4.50
2022-09-13T15:28:54.329Z,5.40
2022-09-13T15:31:29.315Z,5.90
2022-09-13T15:34:18.094Z,4.97
2022-09-13T15:36:47.814Z,5.30
2022-09-13T15:39:20.874Z,4.80
2022-09-13T15:42:00.537Z,5.60
2022-09-13T15:44:30.109Z,4.90
2022-09-13T15:47:05.105Z,5.30
2022-09-13T15:49:32.717Z,6.03
2022-09-13T15:52:05.835Z,4.87
2022-09-13T15:54:41.475Z,5.00
2022-09-13T15:57:26.249Z,6.10
2022-09-13T15:59:55.870Z,5.20
2022-09-13T16:02:25.892Z,7.20
2022-09-13T16:04:53.192Z,5.63
2022-09-13T16:07:21.756Z,5.73
2022-09-13T16:09:49.933Z,4.90
2022-09-13T16:12:19.229Z,6.77
2022-09-13T16:14:47.759Z,7.23
2022-09-13T16:17:24.857Z,5.23
2022-09-13T16:19:53.110Z,5.33
2022-09-13T16:22:20.885Z,5.63
2022-09-13T16:24:48.153Z,5.10
2022-09-13T16:27:18.374Z,6.10
2022-09-13T16:29:46.135Z,5.97
2022-09-13T16:32:13.577Z,5.33
2022-09-13T16:34:40.419Z,7.33
2022-09-13T16:37:07.368Z,7.10
2022-09-13T16:39:34.204Z,7.30
2022-09-13T16:42:01.217Z,7.27
2022-09-13T16:44:28.144Z,6.20
2022-09-13T16:46:55.132Z,7.00
2022-09-13T16:49:22.137Z,7.37
2022-09-13T16:51:49.290Z,8.00
2022-09-13T16:54:16.513Z,5.63
2022-09-13T16:56:43.491Z,6.63
2022-09-13T16:59:10.409Z,6.47
2022-09-13T17:01:37.616Z,7.10
2022-09-13T17:04:04.765Z,6.40
2022-09-13T17:06:31.747Z,6.97
2022-09-13T17:09:02.555Z,7.00
2022-09-13T17:11:35.548Z,7.70
2022-09-13T17:14:05.209Z,7.20
2022-09-13T17:16:40.833Z,7.17
2022-09-13T17:19:16.670Z,7.63
2022-09-13T17:21:45.088Z,7.00
2022-09-13T17:24:13.801Z,7.00
2022-09-13T17:26:42.736Z,6.60
2022-09-13T17:29:12.475Z,7.07
2022-09-13T17:31:40.418Z,7.07
2022-09-13T17:34:08.054Z,11.00
2022-09-13T17:36:35.012Z,7.93
2022-09-13T17:39:02.075Z,7.90
2022-09-13T17:41:28.989Z,9.50
2022-09-13T17:43:55.964Z,9.17
2022-09-13T17:46:29.119Z,10.70
2022-09-13T17:48:59.103Z,7.97
2022-09-13T17:51:30.569Z,9.60
2022-09-13T17:54:10.215Z,8.90
2022-09-13T17:56:40.829Z,8.30
2022-09-13T17:59:15.279Z,8.60
2022-09-13T18:01:48.443Z,8.80
2022-09-13T18:04:18.305Z,9.30
2022-09-13T18:06:46.091Z,8.57
2022-09-13T18:09:15.878Z,8.77
2022-09-13T18:11:43.834Z,8.70
2022-09-13T18:14:14.190Z,11.10
2022-09-13T18:16:42.802Z,8.67
2022-09-13T18:19:10.720Z,8.60
2022-09-13T18:21:38.328Z,8.93
2022-09-13T18:24:07.114Z,8.30
2022-09-13T18:26:34.969Z,8.70
2022-09-13T18:29:05.636Z,10.43
2022-09-13T18:31:35.708Z,9.00
2022-09-13T18:34:08.578Z,13.90
2022-09-13T18:36:37.480Z,9.20
2022-09-13T18:39:06.795Z,7.63
2022-09-13T18:41:37.759Z,12.50
2022-09-13T18:44:07.944Z,7.73
2022-09-13T18:46:36.115Z,9.10
2022-09-13T18:49:04.953Z,10.33
2022-09-13T18:51:42.150Z,9.67
2022-09-13T18:54:15.644Z,13.70
2022-09-13T18:56:42.608Z,9.50
2022-09-13T18:59:11.045Z,9.33
2022-09-13T19:01:42.126Z,10.77
2022-09-13T19:04:13.705Z,10.20
2022-09-13T19:06:44.404Z,9.37
2022-09-13T19:09:12.010Z,10.70
2022-09-13T19:11:46.809Z,9.03
2022-09-13T19:14:21.915Z,8.33
2022-09-13T19:16:49.734Z,8.37
2022-09-13T19:19:16.790Z,8.80
2022-09-13T19:21:43.993Z,9.30
2022-09-13T19:24:17.842Z,8.97
2022-09-13T19:26:48.005Z,10.13
2022-09-13T19:29:18.269Z,9.73
2022-09-13T19:31:48.493Z,9.33
2022-09-13T19:34:20.134Z,9.90
2022-09-13T19:36:50.934Z,9.00
2022-09-13T19:39:17.990Z,8.50
2022-09-13T19:41:45.014Z,10.73
2022-09-13T19:44:14.171Z,9.60
2022-09-13T19:46:42.911Z,9.93
2022-09-13T19:49:16.447Z,10.10
2022-09-13T19:51:51.345Z,11.40
2022-09-13T19:54:19.209Z,9.43
2022-09-13T19:56:46.502Z,10.20
2022-09-13T19:59:16.993Z,11.27
2022-09-13T20:01:46.345Z,9.43
2022-09-13T20:04:20.507Z,9.90
2022-09-13T20:06:52.366Z,10.90
2022-09-13T20:09:20.818Z,11.63
2022-09-13T20:11:48.996Z,11.10
2022-09-13T20:14:19.506Z,11.10
2022-09-13T20:16:47.731Z,10.07
2022-09-13T20:22:09.601Z,12.57
2022-09-13T20:24:36.653Z,11.30
2022-09-13T20:27:03.674Z,11.60
2022-09-13T20:29:32.165Z,12.70
2022-09-13T20:32:00.203Z,11.57
2022-09-13T20:34:28.245Z,11.27
2022-09-13T20:36:55.383Z,11.30
2022-09-13T20:39:22.301Z,11.33
2022-09-13T20:41:52.041Z,11.33
2022-09-13T20:44:19.029Z,11.33
2022-09-13T20:46:46.044Z,11.37
2022-09-13T20:49:13.014Z,11.47
2022-09-13T20:51:40.052Z,11.60
2022-09-13T20:54:07.855Z,11.60
2022-09-13T20:56:35.579Z,12.17
2022-09-13T20:59:03.852Z,13.03
2022-09-13T21:01:32.614Z,11.50
2022-09-13T21:04:00.807Z,11.30
2022-09-13T21:06:32.543Z,11.13
2022-09-13T21:09:02.869Z,11.60
2022-09-13T21:11:35.190Z,11.00
2022-09-13T21:14:06.082Z,11.30
2022-09-13T21:16:39.241Z,11.20
2022-09-13T21:19:07.505Z,10.80
2022-09-13T21:21:38.491Z,11.23
2022-09-13T21:24:10.046Z,11.07
2022-09-13T21:26:42.626Z,11.37
2022-09-13T21:29:11.769Z,10.60
2022-09-13T21:31:40.033Z,10.60
2022-09-13T21:34:14.700Z,11.37
2022-09-13T21:36:43.378Z,11.13
2022-09-13T21:39:10.424Z,11.80
2022-09-13T21:41:37.374Z,12.40
2022-09-13T21:44:05.329Z,11.80
2022-09-13T21:46:36.323Z,12.63
2022-09-13T21:49:07.415Z,10.33
2022-09-13T21:51:47.297Z,12.53
2022-09-13T21:54:19.954Z,11.43
2022-09-13T21:56:55.074Z,11.63
2022-09-13T21:59:24.106Z,14.80
2022-09-13T22:01:53.268Z,10.93
2022-09-13T22:04:25.570Z,11.37
2022-09-13T22:06:54.017Z,12.97
2022-09-13T22:09:27.474Z,11.80
2022-09-13T22:11:56.605Z,11.60
2022-09-13T22:14:23.876Z,10.93
2022-09-13T22:16:53.252Z,13.80
2022-09-13T22:19:25.065Z,10.63
2022-09-13T22:21:56.777Z,10.83
2022-09-13T22:24:27.220Z,10.80
2022-09-13T22:26:56.730Z,9.83
2022-09-13T22:29:24.229Z,10.60
2022-09-13T22:31:52.342Z,10.87
2022-09-13T22:34:23.480Z,10.07
2022-09-13T22:36:51.019Z,10.50
2022-09-13T22:39:18.576Z,11.40
2022-09-13T22:41:45.805Z,10.97
2022-09-13T22:44:13.453Z,12.97
2022-09-13T22:46:44.152Z,11.07
2022-09-13T22:49:17.953Z,12.73
2022-09-13T22:51:46.752Z,11.97
2022-09-13T22:54:15.981Z,11.20
2022-09-13T22:56:43.013Z,12.23
2022-09-13T22:59:17.889Z,11.20
2022-09-13T23:01:45.811Z,11.60
2022-09-13T23:04:12.879Z,11.77
2022-09-13T23:06:41.102Z,11.43
2022-09-13T23:09:09.022Z,13.83
2022-09-13T23:11:38.795Z,11.80
2022-09-13T23:14:13.101Z,12.80
2022-09-13T23:16:49.095Z,11.37
2022-09-13T23:19:17.663Z,12.00
2022-09-13T23:21:44.898Z,11.67
2022-09-13T23:24:16.196Z,11.80
2022-09-13T23:26:44.906Z,12.17
2022-09-13T23:29:15.098Z,12.53
2022-09-13T23:31:43.548Z,12.47
2022-09-13T23:34:12.773Z,12.20
2022-09-13T23:36:42.885Z,15.77
2022-09-13T23:39:16.746Z,13.30
2022-09-13T23:41:46.255Z,14.50
2022-09-13T23:44:13.617Z,13.70
2022-09-13T23:46:41.120Z,14.80
2022-09-13T23:49:08.130Z,15.07
2022-09-13T23:51:35.026Z,14.63
2022-09-13T23:54:02.317Z,16.10
2022-09-13T23:56:32.621Z,13.87
2022-09-13T23:59:02.544Z,12.17
